DAL2160 KMSP-KLAX
Flight info
| Callsign | DAL2160 |
|---|---|
| Flight time | 1h 1m |
| Altitude | 36000 |
| Route | SCHEP1 RXANN DCT TEYOU DCT LLUKY DCT BFF DCT KD63U DCT KU51Q DCT PROMT Q88 HAKMN ANJLL4 |
| Aircraft | A321/M-SDE3FGHIRWY/LB1 |
Departure
| Time | 2026-04-20 22:26 |
|---|---|
| Airport | Minneapolis–Saint Paul International Airport / Wold–Chamberlain Field (KMSP) |
Arrival
| Time | 2026-04-20 23:27 |
|---|---|
| Airport | Los Angeles International Airport (KLAX) |
| Time | Latitude | Longitude | Altitude | Speed | Heading |
|---|---|---|---|---|---|
| 2026-04-20 22:01 | 44.88394 | -93.21680 | 830 ft | 0 kts | 119° |
| 2026-04-20 22:16 | 44.88396 | -93.21685 | 836 ft | 3 kts | 119° |
| 2026-04-20 22:16 | 44.88409 | -93.21717 | 828 ft | 4 kts | 121° |
| 2026-04-20 22:17 | 44.88424 | -93.21748 | 828 ft | 4 kts | 138° |
| 2026-04-20 22:17 | 44.88440 | -93.21761 | 826 ft | 3 kts | 216° |
| 2026-04-20 22:17 | 44.88446 | -93.21754 | 830 ft | 0 kts | 225° |
| 2026-04-20 22:20 | 44.88444 | -93.21757 | 826 ft | 2 kts | 225° |
| 2026-04-20 22:20 | 44.88411 | -93.21804 | 834 ft | 10 kts | 225° |
| 2026-04-20 22:20 | 44.88352 | -93.21887 | 829 ft | 13 kts | 223° |
| 2026-04-20 22:20 | 44.88298 | -93.21977 | 832 ft | 10 kts | 273° |
| 2026-04-20 22:21 | 44.88325 | -93.22064 | 833 ft | 11 kts | 301° |
| 2026-04-20 22:21 | 44.88375 | -93.22182 | 834 ft | 18 kts | 301° |
| 2026-04-20 22:21 | 44.88455 | -93.22366 | 828 ft | 26 kts | 301° |
| 2026-04-20 22:21 | 44.88559 | -93.22606 | 832 ft | 31 kts | 301° |
| 2026-04-20 22:22 | 44.88675 | -93.22873 | 837 ft | 30 kts | 301° |
| 2026-04-20 22:22 | 44.88780 | -93.23117 | 836 ft | 28 kts | 301° |
| 2026-04-20 22:22 | 44.88851 | -93.23283 | 834 ft | 12 kts | 290° |
| 2026-04-20 22:22 | 44.88820 | -93.23356 | 836 ft | 7 kts | 214° |
| 2026-04-20 22:23 | 44.88771 | -93.23399 | 841 ft | 12 kts | 211° |
| 2026-04-20 22:23 | 44.88675 | -93.23481 | 837 ft | 19 kts | 212° |
| 2026-04-20 22:23 | 44.88652 | -93.23604 | 829 ft | 14 kts | 297° |
| 2026-04-20 22:23 | 44.88700 | -93.23723 | 834 ft | 14 kts | 301° |
| 2026-04-20 22:24 | 44.88751 | -93.23839 | 830 ft | 14 kts | 302° |
| 2026-04-20 22:24 | 44.88790 | -93.23967 | 832 ft | 14 kts | 280° |
| 2026-04-20 22:24 | 44.88779 | -93.24104 | 831 ft | 13 kts | 257° |
| 2026-04-20 22:24 | 44.88759 | -93.24206 | 837 ft | 9 kts | 233° |
| 2026-04-20 22:25 | 44.88701 | -93.24205 | 841 ft | 12 kts | 170° |
| 2026-04-20 22:25 | 44.88445 | -93.24141 | 832 ft | 71 kts | 169° |
| 2026-04-20 22:25 | 44.87761 | -93.23963 | 842 ft | 127 kts | 169° |
| 2026-04-20 22:25 | 44.86763 | -93.23710 | 1018 ft | 154 kts | 171° |
| 2026-04-20 22:26 | 44.85746 | -93.23460 | 1851 ft | 143 kts | 171° |
| 2026-04-20 22:26 | 44.84772 | -93.23316 | 2593 ft | 143 kts | 188° |
| 2026-04-20 22:26 | 44.83856 | -93.24073 | 2854 ft | 170 kts | 221° |
| 2026-04-20 22:27 | 44.82250 | -93.27124 | 3229 ft | 218 kts | 229° |
| 2026-04-20 22:27 | 44.79458 | -93.32467 | 4902 ft | 245 kts | 231° |
| 2026-04-20 22:27 | 44.75401 | -93.40211 | 7965 ft | 251 kts | 244° |
| 2026-04-20 22:27 | 44.72025 | -93.49114 | 10558 ft | 273 kts | 246° |
| 2026-04-20 22:28 | 44.67983 | -93.59574 | 12026 ft | 324 kts | 245° |
| 2026-04-20 22:28 | 44.63541 | -93.70939 | 14492 ft | 338 kts | 246° |
| 2026-04-20 22:28 | 44.58965 | -93.82644 | 16794 ft | 348 kts | 247° |
| 2026-04-20 22:28 | 44.53209 | -93.93986 | 18868 ft | 363 kts | 240° |
| 2026-04-20 22:29 | 44.49247 | -94.01599 | 20105 ft | 368 kts | 240° |
| 2026-04-20 22:29 | 44.43091 | -94.13299 | 21957 ft | 377 kts | 241° |
| 2026-04-20 22:29 | 44.36791 | -94.25217 | 23685 ft | 385 kts | 240° |
| 2026-04-20 22:29 | 44.30318 | -94.37414 | 24963 ft | 395 kts | 241° |
| 2026-04-20 22:30 | 44.23689 | -94.49848 | 26282 ft | 405 kts | 241° |
| 2026-04-20 22:30 | 44.16876 | -94.62568 | 27482 ft | 414 kts | 240° |
| 2026-04-20 22:30 | 44.09925 | -94.75507 | 28610 ft | 423 kts | 240° |
| 2026-04-20 22:30 | 44.02776 | -94.88741 | 29638 ft | 431 kts | 240° |
| 2026-04-20 22:31 | 43.95586 | -95.02224 | 30599 ft | 436 kts | 242° |
| 2026-04-20 22:31 | 43.88571 | -95.15810 | 32055 ft | 429 kts | 241° |
| 2026-04-20 22:31 | 43.81599 | -95.29102 | 33515 ft | 424 kts | 241° |
| 2026-04-20 22:31 | 43.74706 | -95.42226 | 34752 ft | 419 kts | 241° |
| 2026-04-20 22:32 | 43.67856 | -95.55205 | 35794 ft | 416 kts | 241° |
| 2026-04-20 22:32 | 43.61017 | -95.68071 | 36026 ft | 407 kts | 241° |
| 2026-04-20 22:32 | 43.47504 | -95.93378 | 35901 ft | 414 kts | 240° |
| 2026-04-20 22:33 | 43.33896 | -96.18617 | 35968 ft | 407 kts | 240° |
| 2026-04-20 22:33 | 43.27796 | -96.31581 | 36058 ft | 394 kts | 252° |
| 2026-04-20 22:33 | 43.23283 | -96.45438 | 36041 ft | 394 kts | 251° |
| 2026-04-20 22:34 | 43.18704 | -96.59315 | 35923 ft | 403 kts | 251° |
| 2026-04-20 22:34 | 43.14146 | -96.73157 | 35886 ft | 401 kts | 251° |
| 2026-04-20 22:34 | 43.09495 | -96.87201 | 36034 ft | 413 kts | 250° |
| 2026-04-20 22:34 | 43.05304 | -96.99763 | 36012 ft | 408 kts | 250° |
| 2026-04-20 22:35 | 43.00830 | -97.14176 | 35939 ft | 412 kts | 254° |
| 2026-04-20 22:35 | 42.96797 | -97.28824 | 35924 ft | 412 kts | 253° |
| 2026-04-20 22:36 | 42.92619 | -97.43427 | 35916 ft | 413 kts | 253° |
| 2026-04-20 22:36 | 42.86758 | -97.63741 | 35939 ft | 412 kts | 252° |
| 2026-04-20 22:37 | 42.78318 | -97.92776 | 35922 ft | 412 kts | 252° |
| 2026-04-20 22:37 | 42.69849 | -98.21602 | 35885 ft | 414 kts | 251° |
| 2026-04-20 22:38 | 42.61187 | -98.50676 | 35907 ft | 416 kts | 251° |
| 2026-04-20 22:38 | 42.52459 | -98.79728 | 35905 ft | 416 kts | 250° |
| 2026-04-20 22:39 | 42.43628 | -99.08702 | 35898 ft | 417 kts | 250° |
| 2026-04-20 22:39 | 42.34702 | -99.37766 | 35867 ft | 419 kts | 250° |
| 2026-04-20 22:40 | 42.25667 | -99.66853 | 35873 ft | 420 kts | 249° |
| 2026-04-20 22:40 | 42.16521 | -99.95869 | 35845 ft | 421 kts | 249° |
| 2026-04-20 22:41 | 42.07309 | -100.24876 | 35843 ft | 421 kts | 249° |
| 2026-04-20 22:41 | 41.98002 | -100.53874 | 35950 ft | 423 kts | 249° |
| 2026-04-20 22:42 | 41.88585 | -100.82873 | 35902 ft | 424 kts | 248° |
| 2026-04-20 22:42 | 41.79044 | -101.11900 | 35913 ft | 426 kts | 248° |
| 2026-04-20 22:43 | 41.69450 | -101.40875 | 35907 ft | 425 kts | 248° |
| 2026-04-20 22:43 | 41.59752 | -101.69727 | 35885 ft | 425 kts | 247° |
| 2026-04-20 22:44 | 41.50079 | -101.98320 | 35917 ft | 426 kts | 247° |
| 2026-04-20 22:44 | 41.40229 | -102.27110 | 35915 ft | 427 kts | 247° |
| 2026-04-20 22:45 | 41.30302 | -102.55784 | 35890 ft | 426 kts | 247° |
| 2026-04-20 22:45 | 41.20314 | -102.84372 | 35964 ft | 427 kts | 246° |
| 2026-04-20 22:46 | 41.10232 | -103.12980 | 35923 ft | 428 kts | 246° |
| 2026-04-20 22:46 | 41.00034 | -103.41568 | 35962 ft | 429 kts | 246° |
| 2026-04-20 22:47 | 40.89737 | -103.70149 | 35954 ft | 431 kts | 246° |
| 2026-04-20 22:47 | 40.79359 | -103.98731 | 36002 ft | 432 kts | 246° |
| 2026-04-20 22:48 | 40.68847 | -104.27323 | 35937 ft | 434 kts | 246° |
| 2026-04-20 22:48 | 40.58245 | -104.55905 | 35924 ft | 434 kts | 245° |
| 2026-04-20 22:49 | 40.47579 | -104.84392 | 35935 ft | 434 kts | 245° |
| 2026-04-20 22:49 | 40.36768 | -105.12978 | 35993 ft | 434 kts | 245° |
| 2026-04-20 22:50 | 40.31352 | -105.27205 | 36126 ft | 435 kts | 245° |
| 2026-04-20 22:50 | 40.25876 | -105.41477 | 36113 ft | 440 kts | 245° |
| 2026-04-20 22:50 | 40.14854 | -105.70075 | 36073 ft | 442 kts | 245° |
| 2026-04-20 22:51 | 40.09307 | -105.84363 | 36253 ft | 439 kts | 245° |
| 2026-04-20 22:51 | 40.03750 | -105.98615 | 36168 ft | 437 kts | 245° |
| 2026-04-20 22:51 | 39.92494 | -106.27256 | 36040 ft | 445 kts | 245° |
| 2026-04-20 22:52 | 39.81040 | -106.56143 | 36031 ft | 446 kts | 245° |
| 2026-04-20 22:52 | 39.75277 | -106.70535 | 36141 ft | 447 kts | 245° |
| 2026-04-20 22:52 | 39.69432 | -106.85101 | 36046 ft | 460 kts | 245° |
| 2026-04-20 22:53 | 39.57641 | -107.14247 | 36093 ft | 460 kts | 245° |
| 2026-04-20 22:53 | 39.45679 | -107.43539 | 36164 ft | 457 kts | 245° |
| 2026-04-20 22:54 | 39.33595 | -107.72833 | 35925 ft | 466 kts | 245° |
| 2026-04-20 22:54 | 39.21426 | -108.02084 | 35934 ft | 462 kts | 245° |
| 2026-04-20 22:55 | 39.15299 | -108.16707 | 36077 ft | 460 kts | 245° |
| 2026-04-20 22:55 | 39.09156 | -108.31265 | 36183 ft | 460 kts | 245° |
| 2026-04-20 22:55 | 38.96827 | -108.60344 | 35984 ft | 467 kts | 245° |
| 2026-04-20 22:56 | 38.84439 | -108.89273 | 35897 ft | 463 kts | 244° |
| 2026-04-20 22:56 | 38.78123 | -109.03922 | 36055 ft | 460 kts | 244° |
| 2026-04-20 22:56 | 38.71949 | -109.18184 | 36131 ft | 462 kts | 244° |
| 2026-04-20 22:57 | 38.59360 | -109.47044 | 35896 ft | 468 kts | 244° |
| 2026-04-20 22:57 | 38.46677 | -109.75840 | 35944 ft | 464 kts | 243° |
| 2026-04-20 22:58 | 38.33934 | -110.04560 | 36067 ft | 462 kts | 243° |
| 2026-04-20 22:58 | 38.21129 | -110.33158 | 35888 ft | 470 kts | 243° |
| 2026-04-20 22:59 | 38.08206 | -110.61728 | 35932 ft | 461 kts | 243° |
| 2026-04-20 22:59 | 38.01763 | -110.75893 | 36070 ft | 462 kts | 243° |
| 2026-04-20 22:59 | 37.95296 | -110.90041 | 36079 ft | 462 kts | 242° |
| 2026-04-20 23:00 | 37.82307 | -111.18263 | 35938 ft | 467 kts | 242° |
| 2026-04-20 23:00 | 37.69253 | -111.46374 | 35974 ft | 461 kts | 242° |
| 2026-04-20 23:01 | 37.56174 | -111.74322 | 36132 ft | 460 kts | 241° |
| 2026-04-20 23:01 | 37.41835 | -112.01241 | 35952 ft | 468 kts | 236° |
| 2026-04-20 23:02 | 37.26576 | -112.27295 | 36002 ft | 458 kts | 236° |
| 2026-04-20 23:02 | 37.11326 | -112.53107 | 36077 ft | 459 kts | 235° |
| 2026-04-20 23:03 | 36.96039 | -112.78842 | 35963 ft | 464 kts | 235° |
| 2026-04-20 23:03 | 36.80804 | -113.04262 | 36092 ft | 453 kts | 234° |
| 2026-04-20 23:04 | 36.65620 | -113.29418 | 35973 ft | 455 kts | 233° |
| 2026-04-20 23:04 | 36.58154 | -113.42099 | 35849 ft | 457 kts | 236° |
| 2026-04-20 23:04 | 36.50971 | -113.54932 | 35794 ft | 452 kts | 235° |
| 2026-04-20 23:05 | 36.43735 | -113.67565 | 35916 ft | 448 kts | 234° |
| 2026-04-20 23:05 | 36.36482 | -113.80233 | 35986 ft | 444 kts | 234° |
| 2026-04-20 23:05 | 36.22020 | -114.05350 | 35810 ft | 452 kts | 233° |
| 2026-04-20 23:06 | 36.07506 | -114.30079 | 35770 ft | 440 kts | 225° |
| 2026-04-20 23:06 | 35.99286 | -114.41374 | 35896 ft | 437 kts | 227° |
| 2026-04-20 23:06 | 35.91309 | -114.52492 | 36000 ft | 435 kts | 226° |
| 2026-04-20 23:07 | 35.83039 | -114.63863 | 35795 ft | 443 kts | 226° |
| 2026-04-20 23:07 | 35.76784 | -114.72445 | 35913 ft | 438 kts | 226° |
| 2026-04-20 23:07 | 35.68681 | -114.83530 | 35924 ft | 436 kts | 226° |
| 2026-04-20 23:08 | 35.57368 | -114.98999 | 35954 ft | 439 kts | 227° |
| 2026-04-20 23:08 | 35.40769 | -115.21091 | 35972 ft | 440 kts | 225° |
| 2026-04-20 23:09 | 35.23899 | -115.43008 | 35958 ft | 439 kts | 225° |
| 2026-04-20 23:09 | 35.07097 | -115.64662 | 35947 ft | 439 kts | 224° |
| 2026-04-20 23:10 | 34.90277 | -115.86094 | 35911 ft | 436 kts | 224° |
| 2026-04-20 23:10 | 34.73644 | -116.07195 | 35913 ft | 433 kts | 225° |
| 2026-04-20 23:11 | 34.57022 | -116.28326 | 34617 ft | 427 kts | 225° |
| 2026-04-20 23:11 | 34.48604 | -116.38968 | 32475 ft | 444 kts | 225° |
| 2026-04-20 23:11 | 34.40780 | -116.49865 | 30498 ft | 423 kts | 240° |
| 2026-04-20 23:12 | 34.35661 | -116.62419 | 28478 ft | 402 kts | 241° |
| 2026-04-20 23:12 | 34.30695 | -116.74491 | 26312 ft | 388 kts | 242° |
| 2026-04-20 23:12 | 34.26093 | -116.86018 | 24419 ft | 373 kts | 242° |
| 2026-04-20 23:12 | 34.21593 | -116.97105 | 22544 ft | 358 kts | 242° |
| 2026-04-20 23:13 | 34.19073 | -117.05840 | 21208 ft | 357 kts | 249° |
| 2026-04-20 23:13 | 34.17502 | -117.11612 | 20261 ft | 361 kts | 249° |
| 2026-04-20 23:13 | 34.15949 | -117.17342 | 19293 ft | 356 kts | 249° |
| 2026-04-20 23:13 | 34.14410 | -117.22989 | 18386 ft | 352 kts | 249° |
| 2026-04-20 23:14 | 34.12877 | -117.28546 | 17434 ft | 345 kts | 249° |
| 2026-04-20 23:14 | 34.11366 | -117.33994 | 16547 ft | 339 kts | 249° |
| 2026-04-20 23:14 | 34.09922 | -117.39277 | 15854 ft | 328 kts | 250° |
| 2026-04-20 23:14 | 34.08599 | -117.44559 | 14819 ft | 330 kts | 251° |
| 2026-04-20 23:15 | 34.07750 | -117.48056 | 14284 ft | 327 kts | 251° |
| 2026-04-20 23:15 | 34.06513 | -117.53066 | 13574 ft | 319 kts | 250° |
| 2026-04-20 23:15 | 34.05866 | -117.55622 | 13093 ft | 319 kts | 250° |
| 2026-04-20 23:15 | 34.05212 | -117.58173 | 12591 ft | 318 kts | 250° |
| 2026-04-20 23:16 | 34.04557 | -117.60714 | 12132 ft | 317 kts | 250° |
| 2026-04-20 23:16 | 34.03902 | -117.63247 | 11693 ft | 316 kts | 250° |
| 2026-04-20 23:16 | 34.03249 | -117.65769 | 11232 ft | 315 kts | 250° |
| 2026-04-20 23:16 | 34.02599 | -117.68290 | 10784 ft | 314 kts | 250° |
| 2026-04-20 23:17 | 34.02103 | -117.70856 | 10457 ft | 312 kts | 261° |
| 2026-04-20 23:17 | 34.01872 | -117.73403 | 10364 ft | 300 kts | 260° |
| 2026-04-20 23:17 | 34.01638 | -117.75876 | 10106 ft | 294 kts | 260° |
| 2026-04-20 23:17 | 34.01398 | -117.78323 | 9667 ft | 294 kts | 259° |
| 2026-04-20 23:18 | 34.01156 | -117.80756 | 9302 ft | 292 kts | 260° |
| 2026-04-20 23:18 | 34.00915 | -117.83173 | 8917 ft | 290 kts | 260° |
| 2026-04-20 23:18 | 34.00683 | -117.85539 | 8556 ft | 287 kts | 259° |
| 2026-04-20 23:18 | 34.00558 | -117.86819 | 8337 ft | 287 kts | 259° |
| 2026-04-20 23:19 | 34.00330 | -117.89190 | 7971 ft | 284 kts | 259° |
| 2026-04-20 23:19 | 34.00097 | -117.91541 | 7606 ft | 281 kts | 261° |
| 2026-04-20 23:19 | 33.99866 | -117.93862 | 7265 ft | 278 kts | 259° |
| 2026-04-20 23:19 | 33.99638 | -117.96161 | 6921 ft | 275 kts | 261° |
| 2026-04-20 23:20 | 33.99412 | -117.98445 | 6579 ft | 273 kts | 258° |
| 2026-04-20 23:20 | 33.99188 | -118.00710 | 6227 ft | 271 kts | 261° |
| 2026-04-20 23:20 | 33.98966 | -118.02949 | 5888 ft | 268 kts | 259° |
| 2026-04-20 23:20 | 33.98745 | -118.05159 | 5553 ft | 266 kts | 260° |
| 2026-04-20 23:21 | 33.98526 | -118.07331 | 5262 ft | 262 kts | 261° |
| 2026-04-20 23:21 | 33.98305 | -118.09498 | 5040 ft | 255 kts | 262° |
| 2026-04-20 23:21 | 33.98092 | -118.11617 | 4732 ft | 253 kts | 262° |
| 2026-04-20 23:21 | 33.97883 | -118.13713 | 4394 ft | 251 kts | 261° |
| 2026-04-20 23:22 | 33.97678 | -118.15762 | 4087 ft | 250 kts | 262° |
| 2026-04-20 23:22 | 33.97467 | -118.17871 | 3749 ft | 248 kts | 261° |
| 2026-04-20 23:22 | 33.97267 | -118.19869 | 3461 ft | 237 kts | 262° |
| 2026-04-20 23:22 | 33.97073 | -118.21803 | 3134 ft | 230 kts | 262° |
| 2026-04-20 23:23 | 33.96884 | -118.23686 | 2829 ft | 221 kts | 262° |
| 2026-04-20 23:23 | 33.96706 | -118.25453 | 2540 ft | 202 kts | 262° |
| 2026-04-20 23:23 | 33.96547 | -118.27035 | 2297 ft | 181 kts | 262° |
| 2026-04-20 23:23 | 33.96405 | -118.28444 | 2075 ft | 157 kts | 261° |
| 2026-04-20 23:24 | 33.96281 | -118.29664 | 1874 ft | 137 kts | 261° |
| 2026-04-20 23:24 | 33.96166 | -118.30794 | 1686 ft | 137 kts | 261° |
| 2026-04-20 23:24 | 33.96053 | -118.31906 | 1505 ft | 131 kts | 261° |
| 2026-04-20 23:24 | 33.95943 | -118.33004 | 1329 ft | 133 kts | 262° |
| 2026-04-20 23:25 | 33.95834 | -118.34097 | 1204 ft | 135 kts | 262° |
| 2026-04-20 23:25 | 33.95713 | -118.35229 | 1005 ft | 135 kts | 261° |
| 2026-04-20 23:25 | 33.95603 | -118.36315 | 806 ft | 129 kts | 262° |
| 2026-04-20 23:25 | 33.95490 | -118.37402 | 595 ft | 129 kts | 263° |
| 2026-04-20 23:26 | 33.95382 | -118.38459 | 450 ft | 128 kts | 264° |
| 2026-04-20 23:26 | 33.95281 | -118.39527 | 293 ft | 129 kts | 262° |
| 2026-04-20 23:26 | 33.95169 | -118.40607 | 140 ft | 128 kts | 263° |
| 2026-04-20 23:26 | 33.95076 | -118.41519 | 121 ft | 81 kts | 263° |
| 2026-04-20 23:27 | 33.95026 | -118.42003 | 126 ft | 48 kts | 263° |
| 2026-04-20 23:27 | 33.94987 | -118.42360 | 124 ft | 33 kts | 259° |
| 2026-04-20 23:27 | 33.94927 | -118.42561 | 124 ft | 21 kts | 239° |
| 2026-04-20 23:27 | 33.94857 | -118.42663 | 122 ft | 15 kts | 225° |
| 2026-04-20 23:28 | 33.94783 | -118.42746 | 123 ft | 14 kts | 212° |
| 2026-04-20 23:28 | 33.94696 | -118.42777 | 123 ft | 9 kts | 187° |
| 2026-04-20 23:28 | 33.94667 | -118.42777 | 124 ft | 4 kts | 169° |
| 2026-04-20 23:28 | 33.94638 | -118.42736 | 124 ft | 10 kts | 107° |
| 2026-04-20 23:29 | 33.94644 | -118.42618 | 126 ft | 15 kts | 83° |
| 2026-04-20 23:29 | 33.94657 | -118.42479 | 126 ft | 21 kts | 83° |
| 2026-04-20 23:29 | 33.94680 | -118.42281 | 126 ft | 25 kts | 83° |
| 2026-04-20 23:29 | 33.94699 | -118.42075 | 126 ft | 24 kts | 83° |
| 2026-04-20 23:30 | 33.94723 | -118.41884 | 126 ft | 22 kts | 81° |
| 2026-04-20 23:30 | 33.94740 | -118.41703 | 126 ft | 21 kts | 85° |
| 2026-04-20 23:30 | 33.94755 | -118.41534 | 126 ft | 20 kts | 83° |
| 2026-04-20 23:30 | 33.94781 | -118.41382 | 124 ft | 18 kts | 73° |
| 2026-04-20 23:31 | 33.94799 | -118.41238 | 123 ft | 17 kts | 83° |
| 2026-04-20 23:31 | 33.94813 | -118.41101 | 126 ft | 16 kts | 83° |
| 2026-04-20 23:31 | 33.94828 | -118.40956 | 124 ft | 14 kts | 83° |
| 2026-04-20 23:31 | 33.94784 | -118.40890 | 124 ft | 10 kts | 185° |
| 2026-04-20 23:32 | 33.94718 | -118.40913 | 123 ft | 10 kts | 179° |
| 2026-04-20 23:32 | 33.94650 | -118.40906 | 124 ft | 10 kts | 173° |
| 2026-04-20 23:32 | 33.94586 | -118.40897 | 123 ft | 9 kts | 173° |
| 2026-04-20 23:32 | 33.94548 | -118.40854 | 124 ft | 8 kts | 101° |
| 2026-04-20 23:33 | 33.94541 | -118.40790 | 123 ft | 8 kts | 96° |
| 2026-04-20 23:33 | 33.94539 | -118.40772 | 123 ft | 0 kts | 96° |